TimeCDT,TemperatureF,Dew PointF,Humidity,Sea Level PressureIn,VisibilityMPH,Wind Direction,Wind SpeedMPH,Gust SpeedMPH,PrecipitationIn,Events,Conditions,WindDirDegrees,DateUTC
12:46 AM,-9999,-9999,N/A,29.91,-9999.0,North,-9999.0,-,N/A,Thunderstorm,Unknown,0,2013-06-25 05:46:00
12:53 AM,-9999,-9999,N/A,29.92,-9999.0,North,-9999.0,-,N/A,Thunderstorm,Unknown,0,2013-06-25 05:53:00
1:34 AM,-9999,-9999,N/A,29.89,-9999.0,North,-9999.0,-,N/A,,Unknown,0,2013-06-25 06:34:00
1:53 AM,-9999,-9999,N/A,29.89,-9999.0,North,-9999.0,-,N/A,,Unknown,0,2013-06-25 06:53:00
2:53 AM,-9999,-9999,N/A,29.88,-9999.0,North,-9999.0,-,N/A,,Unknown,0,2013-06-25 07:53:00
3:53 AM,-9999,-9999,N/A,29.87,-9999.0,North,-9999.0,-,N/A,,Unknown,0,2013-06-25 08:53:00
4:53 AM,-9999,-9999,N/A,29.86,-9999.0,North,-9999.0,-,N/A,,Unknown,0,2013-06-25 09:53:00
5:41 AM,-9999,-9999,N/A,29.86,-9999.0,North,-9999.0,-,N/A,Thunderstorm,Unknown,0,2013-06-25 10:41:00
5:53 AM,-9999,-9999,N/A,29.86,0.2,North,-9999.0,-,N/A,Thunderstorm,Unknown,0,2013-06-25 10:53:00
6:53 AM,-9999,-9999,N/A,29.92,0.2,North,-9999.0,-,N/A,Thunderstorm,Thunderstorm,0,2013-06-25 11:53:00
7:35 AM,-9999,-9999,N/A,29.91,-9999.0,North,-9999.0,-,N/A,Thunderstorm,Thunderstorm,0,2013-06-25 12:35:00
7:44 AM,-9999,-9999,N/A,29.94,-9999.0,North,-9999.0,-,N/A,Thunderstorm,Thunderstorm,0,2013-06-25 12:44:00
7:53 AM,-9999,-9999,N/A,29.92,-9999.0,North,-9999.0,-,N/A,Thunderstorm,Thunderstorm,0,2013-06-25 12:53:00
8:19 AM,-9999,-9999,N/A,29.92,-9999.0,North,-9999.0,-,N/A,,Unknown,0,2013-06-25 13:19:00
8:53 AM,66.9,66.9,100,29.89,10.0,SE,6.9,-,0.02,Rain,Light Rain,140,2013-06-25 13:53:00
9:53 AM,71.1,69.1,93,29.86,10.0,SSE,11.5,-,0.00,,Clear,160,2013-06-25 14:53:00
10:53 AM,75.0,72.0,90,29.85,10.0,South,12.7,20.7,N/A,,Clear,190,2013-06-25 15:53:00
11:53 AM,78.1,73.0,84,29.84,9.0,SSW,20.7,27.6,N/A,,Clear,200,2013-06-25 16:53:00
12:29 PM,77.0,71.6,83,29.87,8.0,SSW,13.8,26.5,N/A,,Mostly Cloudy,210,2013-06-25 17:29:00
12:51 PM,77.0,73.4,89,29.87,7.0,SSW,8.1,-,N/A,,Mostly Cloudy,210,2013-06-25 17:51:00
12:53 PM,77.0,73.0,88,29.87,7.0,SSW,6.9,-,N/A,,Mostly Cloudy,210,2013-06-25 17:53:00
1:10 PM,78.8,73.4,83,29.86,7.0,WSW,5.8,-,N/A,,Overcast,240,2013-06-25 18:10:00
1:41 PM,78.8,73.4,83,29.83,7.0,SSE,4.6,-,N/A,,Scattered Clouds,150,2013-06-25 18:41:00
1:53 PM,80.1,75.0,85,29.82,7.0,SSE,6.9,-,N/A,,Partly Cloudy,150,2013-06-25 18:53:00
2:53 PM,81.0,73.9,79,29.85,10.0,SW,11.5,19.6,N/A,,Partly Cloudy,220,2013-06-25 19:53:00
3:53 PM,79.0,73.0,82,29.83,10.0,SSW,13.8,-,N/A,,Overcast,210,2013-06-25 20:53:00
4:06 PM,80.6,73.4,79,29.83,10.0,SW,10.4,-,N/A,,Mostly Cloudy,220,2013-06-25 21:06:00
4:53 PM,80.1,73.9,81,29.82,10.0,SSW,8.1,-,N/A,,Clear,200,2013-06-25 21:53:00
5:53 PM,79.0,73.0,82,29.81,10.0,South,6.9,-,N/A,,Clear,190,2013-06-25 22:53:00
6:53 PM,80.1,73.9,81,29.81,10.0,South,3.5,-,N/A,,Clear,170,2013-06-25 23:53:00
7:53 PM,77.0,73.9,90,29.81,9.0,South,3.5,-,N/A,,Clear,170,2013-06-26 00:53:00
8:53 PM,77.0,73.9,90,29.79,8.0,SSE,4.6,-,N/A,,Clear,160,2013-06-26 01:53:00
9:53 PM,75.0,73.9,96,29.80,7.0,SSE,4.6,-,N/A,,Clear,160,2013-06-26 02:53:00
10:53 PM,75.0,73.9,96,29.79,7.0,South,5.8,-,N/A,,Clear,180,2013-06-26 03:53:00
11:53 PM,75.0,73.0,94,29.76,9.0,SSE,9.2,-,N/A,,Clear,160,2013-06-26 04:53:00